createdAt,value
2023-01-20T00:01:03.755Z,12.13
2023-01-20T00:03:30.406Z,9.85
2023-01-20T00:05:56.907Z,10.77
2023-01-20T00:08:23.240Z,9.45
2023-01-20T00:10:49.542Z,11.93
2023-01-20T00:13:15.746Z,9.50
2023-01-20T00:15:42.000Z,11.30
2023-01-20T00:18:08.256Z,12.75
2023-01-20T00:20:34.525Z,12.05
2023-01-20T00:23:00.723Z,12.57
2023-01-20T00:25:26.974Z,11.93
2023-01-20T00:27:53.241Z,11.90
2023-01-20T00:30:19.713Z,11.10
2023-01-20T00:32:46.021Z,12.63
2023-01-20T00:35:12.838Z,10.50
2023-01-20T00:37:39.543Z,9.48
2023-01-20T00:40:06.287Z,11.50
2023-01-20T00:42:32.762Z,12.15
2023-01-20T00:44:58.983Z,12.23
2023-01-20T00:47:25.203Z,12.95
2023-01-20T00:49:51.394Z,13.68
2023-01-20T00:52:18.692Z,13.25
2023-01-20T00:54:45.228Z,13.57
2023-01-20T00:57:11.956Z,12.90
2023-01-20T00:59:38.244Z,14.77
2023-01-20T01:02:04.701Z,10.38
2023-01-20T01:04:31.127Z,12.52
2023-01-20T01:06:57.384Z,12.43
2023-01-20T01:09:23.610Z,11.63
2023-01-20T01:11:49.868Z,12.88
2023-01-20T01:14:16.262Z,12.30
2023-01-20T01:16:42.510Z,13.00
2023-01-20T01:19:08.767Z,12.50
2023-01-20T01:21:34.990Z,11.80
2023-01-20T01:24:01.203Z,12.85
2023-01-20T01:26:27.450Z,12.90
2023-01-20T01:28:53.785Z,11.68
2023-01-20T01:31:21.884Z,11.65
2023-01-20T01:33:48.818Z,13.65
2023-01-20T01:36:16.638Z,10.55
2023-01-20T01:38:43.431Z,9.35
2023-01-20T01:41:11.228Z,9.65
2023-01-20T01:43:37.794Z,8.85
2023-01-20T01:46:04.340Z,8.68
2023-01-20T01:48:36.750Z,8.93
2023-01-20T01:51:05.836Z,8.88
2023-01-20T01:53:34.901Z,10.48
2023-01-20T01:56:02.246Z,9.57
2023-01-20T01:58:31.582Z,9.63
2023-01-20T02:00:57.908Z,8.57
2023-01-20T02:03:24.498Z,8.75
2023-01-20T02:05:51.880Z,9.70
2023-01-20T02:08:19.067Z,7.32
2023-01-20T02:10:45.382Z,9.23
2023-01-20T02:13:11.750Z,6.97
2023-01-20T02:15:41.635Z,9.82
2023-01-20T02:18:26.448Z,10.02
2023-01-20T02:21:11.454Z,9.90
2023-01-20T02:23:37.644Z,8.15
2023-01-20T02:26:06.597Z,8.98
2023-01-20T02:28:51.665Z,9.68
2023-01-20T02:31:29.078Z,8.75
2023-01-20T02:34:10.791Z,9.48
2023-01-20T02:36:36.988Z,8.52
2023-01-20T02:39:05.775Z,8.23
2023-01-20T02:41:32.003Z,9.95
2023-01-20T02:44:04.237Z,8.50
2023-01-20T02:46:39.686Z,9.10
2023-01-20T02:49:17.901Z,9.80
2023-01-20T02:51:50.533Z,8.98
2023-01-20T02:54:18.413Z,8.07
2023-01-20T02:56:45.262Z,6.68
2023-01-20T02:59:13.055Z,7.78
2023-01-20T03:01:42.250Z,8.45
2023-01-20T03:04:10.544Z,5.32
2023-01-20T03:06:38.575Z,7.55
2023-01-20T03:09:07.360Z,8.55
2023-01-20T03:11:36.190Z,6.97
2023-01-20T03:14:12.827Z,7.60
2023-01-20T03:16:39.592Z,8.02
2023-01-20T03:19:06.102Z,8.38
2023-01-20T03:21:33.004Z,6.65
2023-01-20T03:24:03.477Z,8.88
2023-01-20T03:26:30.922Z,8.68
2023-01-20T03:28:57.857Z,9.32
2023-01-20T03:31:26.107Z,7.50
2023-01-20T03:33:54.617Z,8.10
2023-01-20T03:36:22.159Z,9.23
2023-01-20T03:38:48.761Z,8.23
2023-01-20T03:41:14.970Z,9.68
2023-01-20T03:43:41.149Z,11.55
2023-01-20T03:46:13.898Z,9.25
2023-01-20T03:48:49.545Z,7.32
2023-01-20T03:51:22.873Z,12.77
2023-01-20T03:54:09.573Z,11.50
2023-01-20T03:56:35.819Z,10.35
2023-01-20T03:59:02.885Z,12.18
2023-01-20T04:01:34.101Z,13.18
2023-01-20T04:04:00.881Z,12.00
2023-01-20T04:06:30.190Z,13.23
2023-01-20T04:08:59.635Z,8.43
2023-01-20T04:11:27.067Z,12.50
2023-01-20T04:13:53.584Z,13.43
2023-01-20T04:16:20.389Z,11.32
2023-01-20T04:18:48.696Z,11.95
2023-01-20T04:21:19.511Z,11.70
2023-01-20T04:24:04.590Z,9.68
2023-01-20T04:26:31.137Z,8.82
2023-01-20T04:28:57.401Z,12.52
2023-01-20T04:31:30.639Z,10.63
2023-01-20T04:33:57.605Z,10.15
2023-01-20T04:36:23.802Z,11.35
2023-01-20T04:38:50.061Z,10.43
2023-01-20T04:41:16.284Z,9.15
2023-01-20T04:43:46.064Z,10.23
2023-01-20T04:46:13.108Z,10.63
2023-01-20T04:48:39.354Z,10.18
2023-01-20T04:51:06.462Z,8.57
2023-01-20T04:53:32.679Z,12.15
2023-01-20T04:55:58.932Z,12.20
2023-01-20T04:58:25.417Z,11.02
2023-01-20T05:00:51.711Z,13.18
2023-01-20T05:03:17.996Z,11.88
2023-01-20T05:05:44.433Z,11.38
2023-01-20T05:08:10.711Z,11.25
2023-01-20T05:10:36.988Z,9.93
2023-01-20T05:13:03.232Z,11.05
2023-01-20T05:15:29.469Z,10.63
2023-01-20T05:17:55.653Z,12.32
2023-01-20T05:20:21.953Z,9.80
2023-01-20T05:22:48.187Z,10.82
2023-01-20T05:25:14.772Z,10.43
2023-01-20T05:27:41.510Z,11.23
2023-01-20T05:30:08.369Z,11.65
2023-01-20T05:32:34.649Z,10.25
2023-01-20T05:35:00.931Z,10.70
2023-01-20T05:37:27.152Z,11.45
2023-01-20T05:39:53.407Z,11.05
2023-01-20T05:42:19.693Z,12.07
2023-01-20T05:44:45.899Z,10.15
2023-01-20T05:47:12.138Z,8.60
2023-01-20T05:49:38.357Z,7.70
2023-01-20T05:52:04.718Z,11.40
2023-01-20T05:54:31.083Z,10.73
2023-01-20T05:56:57.348Z,9.18
2023-01-20T05:59:23.591Z,9.15
2023-01-20T06:01:49.848Z,9.38
2023-01-20T06:04:16.052Z,9.75
2023-01-20T06:06:42.381Z,10.73
2023-01-20T06:09:10.834Z,10.48
2023-01-20T06:11:37.091Z,8.85
2023-01-20T06:14:03.361Z,10.13
2023-01-20T06:16:29.834Z,9.07
2023-01-20T06:18:57.519Z,9.93
2023-01-20T06:21:24.812Z,11.02
2023-01-20T06:23:51.159Z,12.02
2023-01-20T06:26:17.383Z,10.10
2023-01-20T06:28:43.615Z,10.10
2023-01-20T06:31:11.677Z,10.00
2023-01-20T06:33:37.957Z,10.60
2023-01-20T06:36:04.804Z,9.55
2023-01-20T06:38:32.252Z,9.77
2023-01-20T06:40:59.721Z,9.45
2023-01-20T06:43:27.629Z,9.98
2023-01-20T06:45:57.906Z,10.27
2023-01-20T06:48:24.130Z,9.73
2023-01-20T06:50:50.444Z,10.80
2023-01-20T06:53:16.679Z,9.80
2023-01-20T06:55:42.891Z,10.55
2023-01-20T06:58:09.218Z,8.85
2023-01-20T07:00:35.524Z,9.35
2023-01-20T07:03:01.736Z,10.15
2023-01-20T07:05:27.993Z,11.57
2023-01-20T07:07:54.269Z,10.40
2023-01-20T07:10:20.568Z,8.93
2023-01-20T07:12:46.833Z,9.98
2023-01-20T07:15:13.197Z,11.57
2023-01-20T07:17:39.604Z,9.52
2023-01-20T07:20:06.117Z,11.45
2023-01-20T07:22:32.309Z,12.07
2023-01-20T07:24:58.521Z,12.18
2023-01-20T07:27:24.778Z,11.13
2023-01-20T07:29:51.021Z,11.23
2023-01-20T07:32:17.308Z,12.10
2023-01-20T07:34:43.541Z,12.65
2023-01-20T07:37:09.794Z,10.15
2023-01-20T07:39:36.360Z,12.57
2023-01-20T07:42:02.620Z,12.40
2023-01-20T07:44:28.803Z,12.00
2023-01-20T07:46:55.107Z,13.15
2023-01-20T07:49:21.431Z,10.52
2023-01-20T07:51:47.656Z,10.60
2023-01-20T07:54:13.920Z,11.43
2023-01-20T07:56:40.292Z,13.25
2023-01-20T07:59:06.489Z,11.70
2023-01-20T08:01:33.092Z,11.15
2023-01-20T08:04:02.647Z,12.98
2023-01-20T08:06:29.126Z,12.25
2023-01-20T08:08:58.460Z,12.07
2023-01-20T08:11:25.002Z,14.10
2023-01-20T08:13:51.334Z,13.15
2023-01-20T08:16:18.349Z,12.20
2023-01-20T08:18:44.665Z,11.70
2023-01-20T08:21:21.507Z,12.18
2023-01-20T08:23:48.066Z,13.20
2023-01-20T08:26:14.636Z,13.23
2023-01-20T08:28:40.939Z,12.57
2023-01-20T08:31:17.863Z,14.38
2023-01-20T08:33:44.352Z,12.80
2023-01-20T08:36:15.610Z,12.70
2023-01-20T08:38:42.054Z,13.27
2023-01-20T08:41:12.962Z,11.45
2023-01-20T08:43:39.343Z,10.43
2023-01-20T08:46:07.497Z,11.40
2023-01-20T08:48:34.182Z,11.73
2023-01-20T08:51:03.232Z,10.80
2023-01-20T08:53:29.448Z,11.02
2023-01-20T08:55:59.901Z,11.40
2023-01-20T08:58:27.369Z,13.13
2023-01-20T09:00:54.147Z,11.00
2023-01-20T09:03:20.428Z,11.77
2023-01-20T09:05:46.772Z,10.82
2023-01-20T09:08:13.413Z,11.40
2023-01-20T09:10:39.779Z,10.95
2023-01-20T09:13:06.101Z,11.38
2023-01-20T09:15:32.751Z,11.98
2023-01-20T09:17:59.078Z,12.05
2023-01-20T09:20:26.944Z,11.00
2023-01-20T09:22:53.185Z,13.07
2023-01-20T09:25:19.467Z,10.35
2023-01-20T09:27:45.883Z,12.80
2023-01-20T09:30:12.227Z,11.07
2023-01-20T09:32:38.764Z,13.35
2023-01-20T09:35:05.233Z,11.23
2023-01-20T09:37:49.868Z,11.30
2023-01-20T09:40:37.204Z,13.27
2023-01-20T09:43:40.908Z,12.73
2023-01-20T09:46:12.918Z,12.43
2023-01-20T09:49:05.052Z,13.30
2023-01-20T09:51:54.342Z,11.18
2023-01-20T09:54:23.950Z,12.48
2023-01-20T09:56:51.701Z,11.52
2023-01-20T09:59:24.771Z,14.48
2023-01-20T10:01:55.874Z,13.18
2023-01-20T10:04:32.909Z,13.32
2023-01-20T10:07:08.100Z,12.95
2023-01-20T10:09:44.171Z,12.50
2023-01-20T10:12:19.917Z,11.93
2023-01-20T10:14:54.554Z,12.70
2023-01-20T10:17:36.925Z,11.60
2023-01-20T10:20:35.849Z,10.07
2023-01-20T10:23:05.140Z,11.82
2023-01-20T10:25:39.312Z,11.75
2023-01-20T10:28:09.204Z,11.23
2023-01-20T10:30:36.489Z,12.10
2023-01-20T10:33:07.521Z,11.35
2023-01-20T10:38:03.144Z,10.25
2023-01-20T10:40:44.611Z,9.02
2023-01-20T10:43:12.316Z,10.90
2023-01-20T10:45:41.850Z,10.98
2023-01-20T10:48:19.680Z,10.82
2023-01-20T10:50:46.791Z,10.75
2023-01-20T10:53:20.621Z,11.60
2023-01-20T10:56:04.174Z,11.55
2023-01-20T10:58:32.199Z,10.65
2023-01-20T11:01:00.965Z,12.88
2023-01-20T11:03:28.127Z,10.15
2023-01-20T11:05:54.372Z,9.50
2023-01-20T11:08:22.205Z,10.55
2023-01-20T11:10:50.911Z,11.27
2023-01-20T11:13:17.209Z,11.57
2023-01-20T11:15:45.266Z,11.68
2023-01-20T11:18:14.585Z,11.32
2023-01-20T11:20:47.049Z,11.38
2023-01-20T11:23:19.365Z,10.85
2023-01-20T11:25:53.801Z,8.82
2023-01-20T11:28:20.043Z,10.80
2023-01-20T11:30:50.293Z,10.48
2023-01-20T11:33:24.272Z,10.55
2023-01-20T11:36:01.182Z,10.48
2023-01-20T11:38:29.167Z,9.88
2023-01-20T11:40:57.495Z,10.68
2023-01-20T11:43:27.987Z,8.98
2023-01-20T11:46:08.948Z,9.68
2023-01-20T11:48:35.212Z,8.73
2023-01-20T11:51:02.497Z,8.68
2023-01-20T11:53:31.634Z,9.30
2023-01-20T11:56:03.008Z,8.90
2023-01-20T11:58:32.333Z,8.95
2023-01-20T12:01:03.627Z,9.68
2023-01-20T12:03:43.559Z,9.68
2023-01-20T12:06:21.189Z,10.32
2023-01-20T12:08:52.446Z,9.18
2023-01-20T12:11:22.150Z,8.77
2023-01-20T12:14:14.765Z,9.80
2023-01-20T12:16:41.566Z,8.43
2023-01-20T12:19:14.138Z,9.10
2023-01-20T12:21:45.843Z,7.63
2023-01-20T12:24:16.094Z,7.95
2023-01-20T12:26:42.687Z,8.57
2023-01-20T12:29:19.427Z,8.32
2023-01-20T12:31:48.941Z,8.45
2023-01-20T12:34:17.126Z,7.80
2023-01-20T12:37:02.287Z,7.50
2023-01-20T12:39:32.864Z,7.10
2023-01-20T12:42:05.585Z,9.77
2023-01-20T12:44:31.772Z,9.07
2023-01-20T12:47:17.295Z,7.10
2023-01-20T12:49:53.307Z,8.55
2023-01-20T12:52:30.675Z,7.68
2023-01-20T12:54:56.895Z,7.00
2023-01-20T12:57:38.800Z,13.02
2023-01-20T13:00:23.676Z,7.40
2023-01-20T13:03:08.808Z,7.35
2023-01-20T13:05:38.114Z,8.18
2023-01-20T13:08:04.405Z,6.85
2023-01-20T13:10:51.296Z,7.25
2023-01-20T13:13:40.245Z,6.00
2023-01-20T13:16:20.977Z,6.38
2023-01-20T13:18:49.987Z,7.63
2023-01-20T13:21:18.897Z,6.82
2023-01-20T13:23:45.765Z,6.18
2023-01-20T13:26:12.573Z,5.40
2023-01-20T13:28:49.603Z,5.93
2023-01-20T13:31:45.323Z,6.22
2023-01-20T13:34:20.836Z,6.78
2023-01-20T13:37:02.699Z,6.60
2023-01-20T13:39:39.535Z,6.63
2023-01-20T13:42:24.596Z,5.90
2023-01-20T13:45:09.620Z,5.63
2023-01-20T13:47:54.590Z,6.55
2023-01-20T13:50:22.295Z,6.63
2023-01-20T13:52:56.968Z,4.72
2023-01-20T13:55:35.189Z,5.10
2023-01-20T13:58:01.394Z,4.80
2023-01-20T14:00:27.630Z,5.90
2023-01-20T14:02:54.018Z,6.03
2023-01-20T14:05:24.953Z,6.50
2023-01-20T14:07:51.428Z,6.05
2023-01-20T14:10:18.623Z,6.20
2023-01-20T14:12:44.904Z,4.18
2023-01-20T14:15:24.515Z,5.65
2023-01-20T14:17:54.973Z,5.28
2023-01-20T14:20:23.558Z,6.00
2023-01-20T14:22:50.023Z,4.95
2023-01-20T14:25:20.750Z,4.88
2023-01-20T14:27:47.033Z,5.82
2023-01-20T14:30:16.982Z,4.28
2023-01-20T14:32:43.288Z,4.80
2023-01-20T14:35:17.250Z,5.32
2023-01-20T14:37:43.988Z,5.07
2023-01-20T14:40:10.194Z,4.90
2023-01-20T14:42:38.861Z,3.78
2023-01-20T14:45:21.791Z,5.00
2023-01-20T14:47:48.394Z,5.22
2023-01-20T14:50:15.709Z,5.18
2023-01-20T14:52:42.699Z,5.22
2023-01-20T14:55:26.685Z,4.25
2023-01-20T14:57:52.933Z,5.07
2023-01-20T15:00:20.812Z,5.35
2023-01-20T15:03:09.252Z,5.22
2023-01-20T15:05:37.293Z,4.60
2023-01-20T15:08:26.107Z,3.58
2023-01-20T15:11:12.179Z,3.92
2023-01-20T15:13:39.075Z,5.18
2023-01-20T15:16:16.898Z,4.35
2023-01-20T15:18:43.156Z,3.60
2023-01-20T15:21:22.297Z,3.70
2023-01-20T15:23:52.402Z,4.85
2023-01-20T15:26:28.905Z,4.73
2023-01-20T15:28:55.833Z,4.65
2023-01-20T15:31:22.326Z,5.43
2023-01-20T15:33:48.695Z,5.07
2023-01-20T15:36:27.599Z,5.50
2023-01-20T15:38:53.878Z,4.75
2023-01-20T15:41:20.131Z,4.80
2023-01-20T15:43:46.436Z,5.38
2023-01-20T15:46:13.971Z,6.00
2023-01-20T15:48:40.527Z,6.47
2023-01-20T15:51:07.105Z,6.97
2023-01-20T15:53:33.833Z,7.22
2023-01-20T15:56:00.343Z,7.20
2023-01-20T15:58:28.125Z,8.43
2023-01-20T16:00:57.706Z,7.85
2023-01-20T16:03:24.345Z,7.03
2023-01-20T16:05:51.593Z,8.60
2023-01-20T16:08:18.896Z,8.43
2023-01-20T16:10:45.217Z,9.35
2023-01-20T16:13:11.506Z,8.05
2023-01-20T16:15:38.352Z,7.72
2023-01-20T16:18:04.623Z,8.43
2023-01-20T16:20:31.093Z,8.50
2023-01-20T16:22:57.408Z,9.02
2023-01-20T16:25:24.587Z,9.55
2023-01-20T16:27:50.930Z,7.93
2023-01-20T16:30:19.079Z,8.75
2023-01-20T16:32:46.473Z,8.82
2023-01-20T16:35:13.633Z,8.45
2023-01-20T16:37:39.887Z,10.38
2023-01-20T16:40:06.425Z,11.55
2023-01-20T16:42:33.013Z,10.32
2023-01-20T16:44:59.251Z,9.38
2023-01-20T16:47:25.455Z,7.00
2023-01-20T16:49:51.794Z,7.50
2023-01-20T16:52:17.993Z,10.73
2023-01-20T16:54:44.253Z,9.88
2023-01-20T16:57:10.493Z,10.77
2023-01-20T16:59:36.702Z,8.90
2023-01-20T17:02:02.974Z,8.88
2023-01-20T17:04:30.345Z,10.43
2023-01-20T17:06:56.557Z,10.00
2023-01-20T17:09:22.827Z,9.88
2023-01-20T17:11:49.053Z,10.10
2023-01-20T17:14:15.605Z,13.25
2023-01-20T17:16:42.048Z,12.05
2023-01-20T17:19:10.055Z,10.05
2023-01-20T17:21:38.219Z,11.40
2023-01-20T17:24:04.999Z,7.38
2023-01-20T17:26:31.555Z,11.85
2023-01-20T17:29:04.806Z,10.85
2023-01-20T17:31:34.139Z,12.60
2023-01-20T17:34:00.338Z,12.95
2023-01-20T17:36:26.528Z,11.95
2023-01-20T17:38:52.811Z,12.07
2023-01-20T17:41:19.057Z,12.43
2023-01-20T17:43:48.333Z,11.70
2023-01-20T17:46:34.807Z,13.05
2023-01-20T17:49:08.059Z,10.70
2023-01-20T17:51:34.760Z,12.07
2023-01-20T17:54:03.845Z,12.13
2023-01-20T17:56:30.449Z,11.52
2023-01-20T17:58:56.668Z,12.75
2023-01-20T18:01:27.153Z,11.50
2023-01-20T18:03:54.415Z,12.00
2023-01-20T18:06:22.076Z,12.80
2023-01-20T18:08:52.719Z,10.75
2023-01-20T18:11:20.210Z,9.68
2023-01-20T18:13:46.777Z,11.95
2023-01-20T18:16:14.107Z,12.52
2023-01-20T18:18:41.047Z,12.23
2023-01-20T18:21:11.619Z,12.20
2023-01-20T18:23:39.256Z,10.98
2023-01-20T18:26:06.786Z,13.38
2023-01-20T18:28:33.620Z,12.35
2023-01-20T18:31:00.992Z,12.30
2023-01-20T18:33:27.270Z,12.65
2023-01-20T18:35:54.718Z,12.40
2023-01-20T18:38:20.951Z,12.93
2023-01-20T18:40:47.140Z,16.63
2023-01-20T18:43:13.320Z,12.15
2023-01-20T18:45:39.539Z,12.80
2023-01-20T18:48:05.915Z,12.95
2023-01-20T18:50:32.180Z,11.68
2023-01-20T18:52:59.552Z,12.65
2023-01-20T18:55:25.777Z,11.77
2023-01-20T18:57:52.028Z,11.75
2023-01-20T19:00:18.491Z,13.50
2023-01-20T19:02:45.226Z,13.55
2023-01-20T19:05:13.051Z,13.82
2023-01-20T19:07:39.324Z,14.00
2023-01-20T19:10:05.688Z,14.55
2023-01-20T19:12:31.882Z,14.27
2023-01-20T19:14:58.183Z,14.35
2023-01-20T19:17:26.556Z,12.30
2023-01-20T19:19:52.766Z,14.65
2023-01-20T19:22:18.985Z,14.95
2023-01-20T19:24:45.182Z,13.35
2023-01-20T19:27:11.371Z,13.43
2023-01-20T19:29:40.821Z,13.10
2023-01-20T19:32:07.755Z,13.95
2023-01-20T19:34:34.740Z,13.05
2023-01-20T19:37:01.302Z,13.38
2023-01-20T19:39:27.618Z,13.50
2023-01-20T19:41:53.909Z,13.90
2023-01-20T19:44:20.181Z,14.00
2023-01-20T19:46:46.360Z,11.82
2023-01-20T19:49:12.860Z,13.40
2023-01-20T19:51:39.142Z,14.48
2023-01-20T19:54:05.960Z,13.70
2023-01-20T19:56:33.388Z,13.57
2023-01-20T19:59:03.215Z,13.07
2023-01-20T20:01:31.690Z,12.60
2023-01-20T20:03:58.491Z,11.90
2023-01-20T20:06:24.807Z,13.00
2023-01-20T20:08:51.483Z,11.98
2023-01-20T20:11:18.056Z,12.20
2023-01-20T20:13:44.448Z,13.73
2023-01-20T20:16:10.927Z,12.30
2023-01-20T20:18:37.215Z,13.63
2023-01-20T20:21:04.707Z,12.23
2023-01-20T20:23:31.169Z,12.05
2023-01-20T20:25:57.454Z,11.70
2023-01-20T20:28:24.127Z,12.07
2023-01-20T20:30:50.638Z,12.43
2023-01-20T20:33:18.404Z,13.60
2023-01-20T20:35:44.980Z,13.35
2023-01-20T20:38:11.180Z,12.32
2023-01-20T20:40:37.519Z,11.80
2023-01-20T20:43:04.334Z,12.63
2023-01-20T20:45:30.581Z,12.57
2023-01-20T20:47:57.215Z,12.85
2023-01-20T20:50:24.003Z,11.30
2023-01-20T20:52:51.206Z,12.35
2023-01-20T20:55:17.828Z,12.45
2023-01-20T20:57:44.062Z,12.45
2023-01-20T21:00:10.750Z,13.25
2023-01-20T21:02:39.482Z,12.05
2023-01-20T21:05:06.573Z,12.55
2023-01-20T21:07:32.824Z,11.65
2023-01-20T21:09:59.035Z,12.60
2023-01-20T21:12:25.328Z,11.90
2023-01-20T21:14:51.577Z,11.60
2023-01-20T21:17:17.811Z,13.25
2023-01-20T21:19:44.112Z,11.77
2023-01-20T21:22:10.382Z,12.68
2023-01-20T21:24:36.599Z,12.85
2023-01-20T21:27:02.843Z,12.98
2023-01-20T21:29:29.205Z,13.52
2023-01-20T21:31:55.769Z,13.15
2023-01-20T21:34:22.057Z,12.32
2023-01-20T21:36:48.260Z,12.75
2023-01-20T21:39:19.945Z,12.57
2023-01-20T21:41:46.590Z,13.40
2023-01-20T21:44:28.681Z,12.13
2023-01-20T21:46:59.290Z,11.45
2023-01-20T21:49:44.527Z,13.60
2023-01-20T21:52:31.575Z,13.10
2023-01-20T21:54:57.824Z,13.48
2023-01-20T21:57:25.004Z,12.40
2023-01-20T21:59:51.792Z,12.93
2023-01-20T22:02:18.148Z,14.93
2023-01-20T22:04:46.012Z,14.73
2023-01-20T22:07:12.579Z,15.20
2023-01-20T22:09:39.100Z,15.15
2023-01-20T22:12:05.530Z,14.35
2023-01-20T22:14:34.697Z,14.18
2023-01-20T22:17:01.339Z,14.65
2023-01-20T22:19:27.546Z,16.13
2023-01-20T22:21:53.782Z,15.80
2023-01-20T22:24:20.071Z,15.55
2023-01-20T22:26:48.003Z,14.60
2023-01-20T22:29:14.499Z,15.18
2023-01-20T22:31:40.814Z,14.02
2023-01-20T22:34:07.480Z,13.82
2023-01-20T22:36:34.036Z,14.60
2023-01-20T22:39:00.250Z,13.40
2023-01-20T22:41:26.634Z,15.27
2023-01-20T22:43:53.320Z,12.52
2023-01-20T22:46:22.992Z,12.48
2023-01-20T22:48:49.250Z,13.20
2023-01-20T22:51:16.985Z,13.55
2023-01-20T22:53:43.389Z,13.48
2023-01-20T22:56:11.675Z,12.02
2023-01-20T22:58:37.967Z,13.00
2023-01-20T23:01:04.338Z,13.55
2023-01-20T23:03:31.068Z,12.75
2023-01-20T23:05:58.773Z,14.88
2023-01-20T23:08:29.625Z,13.50
2023-01-20T23:11:06.607Z,12.25
2023-01-20T23:13:33.031Z,13.10
2023-01-20T23:15:59.246Z,13.98
2023-01-20T23:18:25.586Z,12.90
2023-01-20T23:20:52.806Z,13.32
2023-01-20T23:23:19.368Z,13.93
2023-01-20T23:25:45.797Z,14.30
2023-01-20T23:28:12.376Z,13.38
2023-01-20T23:30:39.122Z,13.82
2023-01-20T23:33:05.883Z,12.07
2023-01-20T23:35:33.689Z,13.63
2023-01-20T23:37:59.913Z,13.75
2023-01-20T23:40:26.155Z,13.43
2023-01-20T23:42:52.495Z,12.85
2023-01-20T23:45:18.749Z,14.35
2023-01-20T23:47:45.019Z,14.00
2023-01-20T23:50:11.393Z,14.25
2023-01-20T23:52:37.591Z,12.73
2023-01-20T23:55:04.529Z,13.77
2023-01-20T23:57:30.760Z,13.80
2023-01-20T23:59:56.992Z,14.20
